sensor_id;sensor_type;location;lat;lon;timestamp;temperature;humidity
77693;SHT31;66984;47.404;18.836;2023-07-20T00:00:10;24.41;64.87
77693;SHT31;66984;47.404;18.836;2023-07-20T00:01:33;24.41;64.84
77693;SHT31;66984;47.404;18.836;2023-07-20T00:02:52;24.42;64.78
77693;SHT31;66984;47.404;18.836;2023-07-20T00:03:55;24.39;64.94
77693;SHT31;66984;47.404;18.836;2023-07-20T00:04:58;24.38;65.00
77693;SHT31;66984;47.404;18.836;2023-07-20T00:06:08;24.37;64.99
77693;SHT31;66984;47.404;18.836;2023-07-20T00:07:11;24.38;64.91
77693;SHT31;66984;47.404;18.836;2023-07-20T00:08:15;24.37;64.82
77693;SHT31;66984;47.404;18.836;2023-07-20T00:09:18;24.35;64.64
77693;SHT31;66984;47.404;18.836;2023-07-20T00:10:23;24.35;64.58
77693;SHT31;66984;47.404;18.836;2023-07-20T00:11:36;24.38;64.55
77693;SHT31;66984;47.404;18.836;2023-07-20T00:12:40;24.29;64.84
77693;SHT31;66984;47.404;18.836;2023-07-20T00:13:43;24.28;64.68
77693;SHT31;66984;47.404;18.836;2023-07-20T00:14:46;24.24;64.79
77693;SHT31;66984;47.404;18.836;2023-07-20T00:15:51;24.25;64.67
77693;SHT31;66984;47.404;18.836;2023-07-20T00:17:06;24.27;64.58
77693;SHT31;66984;47.404;18.836;2023-07-20T00:18:23;24.27;64.53
77693;SHT31;66984;47.404;18.836;2023-07-20T00:19:27;24.31;64.45
77693;SHT31;66984;47.404;18.836;2023-07-20T00:20:30;24.29;64.49
77693;SHT31;66984;47.404;18.836;2023-07-20T00:21:40;24.25;64.52
77693;SHT31;66984;47.404;18.836;2023-07-20T00:22:43;24.25;64.59
77693;SHT31;66984;47.404;18.836;2023-07-20T00:23:46;24.24;64.54
77693;SHT31;66984;47.404;18.836;2023-07-20T00:24:49;24.22;64.55
77693;SHT31;66984;47.404;18.836;2023-07-20T00:25:52;24.24;64.57
77693;SHT31;66984;47.404;18.836;2023-07-20T00:27:01;24.22;64.56
77693;SHT31;66984;47.404;18.836;2023-07-20T00:28:05;24.22;64.63
77693;SHT31;66984;47.404;18.836;2023-07-20T00:29:08;24.20;64.67
77693;SHT31;66984;47.404;18.836;2023-07-20T00:30:11;24.20;64.77
77693;SHT31;66984;47.404;18.836;2023-07-20T00:31:20;24.17;64.76
77693;SHT31;66984;47.404;18.836;2023-07-20T00:32:23;24.18;64.75
77693;SHT31;66984;47.404;18.836;2023-07-20T00:33:26;24.17;64.70
77693;SHT31;66984;47.404;18.836;2023-07-20T00:34:29;24.18;64.72
77693;SHT31;66984;47.404;18.836;2023-07-20T00:35:32;24.14;64.64
77693;SHT31;66984;47.404;18.836;2023-07-20T00:36:42;24.16;64.73
77693;SHT31;66984;47.404;18.836;2023-07-20T00:37:45;24.17;64.75
77693;SHT31;66984;47.404;18.836;2023-07-20T00:38:48;24.14;64.76
77693;SHT31;66984;47.404;18.836;2023-07-20T00:39:53;24.14;64.83
77693;SHT31;66984;47.404;18.836;2023-07-20T00:40:56;24.11;64.85
77693;SHT31;66984;47.404;18.836;2023-07-20T00:42:05;24.10;64.88
77693;SHT31;66984;47.404;18.836;2023-07-20T00:43:08;24.13;64.89
77693;SHT31;66984;47.404;18.836;2023-07-20T00:44:12;24.11;64.86
77693;SHT31;66984;47.404;18.836;2023-07-20T00:45:15;24.11;64.87
77693;SHT31;66984;47.404;18.836;2023-07-20T00:46:24;24.08;65.00
77693;SHT31;66984;47.404;18.836;2023-07-20T00:47:28;24.04;65.05
77693;SHT31;66984;47.404;18.836;2023-07-20T00:48:31;24.03;65.16
77693;SHT31;66984;47.404;18.836;2023-07-20T00:49:34;24.01;65.18
77693;SHT31;66984;47.404;18.836;2023-07-20T00:50:39;24.03;65.23
77693;SHT31;66984;47.404;18.836;2023-07-20T00:51:49;24.00;65.36
77693;SHT31;66984;47.404;18.836;2023-07-20T00:52:54;23.96;65.52
77693;SHT31;66984;47.404;18.836;2023-07-20T00:53:57;23.94;65.55
77693;SHT31;66984;47.404;18.836;2023-07-20T00:55:00;23.90;65.70
77693;SHT31;66984;47.404;18.836;2023-07-20T00:56:04;23.93;65.76
77693;SHT31;66984;47.404;18.836;2023-07-20T00:57:15;23.86;65.81
77693;SHT31;66984;47.404;18.836;2023-07-20T00:58:18;23.87;65.86
77693;SHT31;66984;47.404;18.836;2023-07-20T00:59:21;23.87;65.92
77693;SHT31;66984;47.404;18.836;2023-07-20T01:00:24;23.90;65.90
77693;SHT31;66984;47.404;18.836;2023-07-20T01:01:27;23.90;65.91
77693;SHT31;66984;47.404;18.836;2023-07-20T01:02:36;23.92;65.90
77693;SHT31;66984;47.404;18.836;2023-07-20T01:03:39;23.93;65.90
77693;SHT31;66984;47.404;18.836;2023-07-20T01:04:42;23.93;65.84
77693;SHT31;66984;47.404;18.836;2023-07-20T01:06:15;23.92;65.87
77693;SHT31;66984;47.404;18.836;2023-07-20T01:07:31;23.93;65.84
77693;SHT31;66984;47.404;18.836;2023-07-20T01:10:23;23.86;65.92
77693;SHT31;66984;47.404;18.836;2023-07-20T01:11:38;23.81;66.00
77693;SHT31;66984;47.404;18.836;2023-07-20T01:12:52;23.86;65.87
77693;SHT31;66984;47.404;18.836;2023-07-20T01:13:55;23.87;65.96
77693;SHT31;66984;47.404;18.836;2023-07-20T01:14:58;23.87;66.20
77693;SHT31;66984;47.404;18.836;2023-07-20T01:16:02;23.86;66.20
77693;SHT31;66984;47.404;18.836;2023-07-20T01:17:05;23.86;66.18
77693;SHT31;66984;47.404;18.836;2023-07-20T01:18:21;23.86;66.09
77693;SHT31;66984;47.404;18.836;2023-07-20T01:19:24;23.86;66.16
77693;SHT31;66984;47.404;18.836;2023-07-20T01:20:28;23.86;66.09
77693;SHT31;66984;47.404;18.836;2023-07-20T01:23:20;23.90;66.18
77693;SHT31;66984;47.404;18.836;2023-07-20T01:24:44;23.92;66.10
77693;SHT31;66984;47.404;18.836;2023-07-20T01:29:11;23.92;65.94
77693;SHT31;66984;47.404;18.836;2023-07-20T01:31:57;23.92;66.15
77693;SHT31;66984;47.404;18.836;2023-07-20T01:33:01;23.90;66.18
77693;SHT31;66984;47.404;18.836;2023-07-20T01:34:06;23.90;66.17
77693;SHT31;66984;47.404;18.836;2023-07-20T01:35:19;23.88;66.15
77693;SHT31;66984;47.404;18.836;2023-07-20T01:36:24;23.88;66.12
77693;SHT31;66984;47.404;18.836;2023-07-20T01:37:30;23.88;66.10
77693;SHT31;66984;47.404;18.836;2023-07-20T01:38:36;23.90;66.07
77693;SHT31;66984;47.404;18.836;2023-07-20T01:39:40;23.93;66.10
77693;SHT31;66984;47.404;18.836;2023-07-20T01:40:50;23.93;66.04
77693;SHT31;66984;47.404;18.836;2023-07-20T01:41:54;23.92;66.11
77693;SHT31;66984;47.404;18.836;2023-07-20T01:42:58;23.90;66.24
77693;SHT31;66984;47.404;18.836;2023-07-20T01:44:03;23.96;66.16
77693;SHT31;66984;47.404;18.836;2023-07-20T01:45:07;23.94;66.18
77693;SHT31;66984;47.404;18.836;2023-07-20T01:46:16;23.97;66.14
77693;SHT31;66984;47.404;18.836;2023-07-20T01:47:19;23.96;66.11
77693;SHT31;66984;47.404;18.836;2023-07-20T01:48:22;23.97;66.19
77693;SHT31;66984;47.404;18.836;2023-07-20T01:49:25;23.94;66.21
77693;SHT31;66984;47.404;18.836;2023-07-20T01:50:34;23.97;66.21
77693;SHT31;66984;47.404;18.836;2023-07-20T01:51:37;23.94;66.25
77693;SHT31;66984;47.404;18.836;2023-07-20T01:52:47;23.94;66.14
77693;SHT31;66984;47.404;18.836;2023-07-20T01:53:50;23.87;65.82
77693;SHT31;66984;47.404;18.836;2023-07-20T01:54:53;23.90;65.93
77693;SHT31;66984;47.404;18.836;2023-07-20T01:55:57;23.92;66.07
77693;SHT31;66984;47.404;18.836;2023-07-20T01:57:00;23.93;66.10
77693;SHT31;66984;47.404;18.836;2023-07-20T01:58:09;23.92;66.20
77693;SHT31;66984;47.404;18.836;2023-07-20T01:59:12;23.84;66.22
77693;SHT31;66984;47.404;18.836;2023-07-20T02:00:15;23.90;66.20
77693;SHT31;66984;47.404;18.836;2023-07-20T02:01:18;23.88;66.18
77693;SHT31;66984;47.404;18.836;2023-07-20T02:02:26;23.86;66.13
77693;SHT31;66984;47.404;18.836;2023-07-20T02:03:35;23.84;66.05
77693;SHT31;66984;47.404;18.836;2023-07-20T02:04:38;23.86;65.98
77693;SHT31;66984;47.404;18.836;2023-07-20T02:05:45;23.84;65.84
77693;SHT31;66984;47.404;18.836;2023-07-20T02:06:47;23.83;66.05
77693;SHT31;66984;47.404;18.836;2023-07-20T02:07:57;23.84;65.93
77693;SHT31;66984;47.404;18.836;2023-07-20T02:09:00;23.86;65.94
77693;SHT31;66984;47.404;18.836;2023-07-20T02:10:03;23.88;65.97
77693;SHT31;66984;47.404;18.836;2023-07-20T02:11:06;23.87;66.08
77693;SHT31;66984;47.404;18.836;2023-07-20T02:12:09;23.93;66.00
77693;SHT31;66984;47.404;18.836;2023-07-20T02:13:18;23.93;65.96
77693;SHT31;66984;47.404;18.836;2023-07-20T02:14:21;23.97;65.91
77693;SHT31;66984;47.404;18.836;2023-07-20T02:15:25;23.98;65.95
77693;SHT31;66984;47.404;18.836;2023-07-20T02:16:28;24.03;65.98
77693;SHT31;66984;47.404;18.836;2023-07-20T02:17:31;24.00;66.04
77693;SHT31;66984;47.404;18.836;2023-07-20T02:18:49;24.03;66.13
77693;SHT31;66984;47.404;18.836;2023-07-20T02:19:53;24.01;66.07
77693;SHT31;66984;47.404;18.836;2023-07-20T02:20:57;24.01;65.98
77693;SHT31;66984;47.404;18.836;2023-07-20T02:22:00;24.03;66.04
77693;SHT31;66984;47.404;18.836;2023-07-20T02:23:03;24.04;66.01
77693;SHT31;66984;47.404;18.836;2023-07-20T02:24:12;24.03;65.95
77693;SHT31;66984;47.404;18.836;2023-07-20T02:25:15;24.06;65.91
77693;SHT31;66984;47.404;18.836;2023-07-20T02:26:19;24.01;65.97
77693;SHT31;66984;47.404;18.836;2023-07-20T02:27:22;24.03;65.98
77693;SHT31;66984;47.404;18.836;2023-07-20T02:28:25;24.00;66.18
77693;SHT31;66984;47.404;18.836;2023-07-20T02:29:34;24.00;66.13
77693;SHT31;66984;47.404;18.836;2023-07-20T02:30:38;24.03;66.13
77693;SHT31;66984;47.404;18.836;2023-07-20T02:31:42;24.00;66.09
77693;SHT31;66984;47.404;18.836;2023-07-20T02:32:45;24.00;66.14
77693;SHT31;66984;47.404;18.836;2023-07-20T02:33:51;24.01;66.15
77693;SHT31;66984;47.404;18.836;2023-07-20T02:35:00;23.96;66.18
77693;SHT31;66984;47.404;18.836;2023-07-20T02:36:03;23.94;66.19
77693;SHT31;66984;47.404;18.836;2023-07-20T02:37:06;23.93;66.35
77693;SHT31;66984;47.404;18.836;2023-07-20T02:38:12;23.93;66.31
77693;SHT31;66984;47.404;18.836;2023-07-20T02:39:15;23.93;66.21
77693;SHT31;66984;47.404;18.836;2023-07-20T02:40:24;23.92;66.28
77693;SHT31;66984;47.404;18.836;2023-07-20T02:41:27;23.93;66.33
77693;SHT31;66984;47.404;18.836;2023-07-20T02:42:30;23.92;66.33
77693;SHT31;66984;47.404;18.836;2023-07-20T02:43:33;23.90;66.52
77693;SHT31;66984;47.404;18.836;2023-07-20T02:44:36;23.87;66.29
77693;SHT31;66984;47.404;18.836;2023-07-20T02:45:47;23.86;66.36
77693;SHT31;66984;47.404;18.836;2023-07-20T02:46:49;23.88;66.43
77693;SHT31;66984;47.404;18.836;2023-07-20T02:47:53;23.86;66.49
77693;SHT31;66984;47.404;18.836;2023-07-20T02:48:56;23.90;66.49
77693;SHT31;66984;47.404;18.836;2023-07-20T02:49:59;23.88;66.47
77693;SHT31;66984;47.404;18.836;2023-07-20T02:51:09;23.88;66.59
77693;SHT31;66984;47.404;18.836;2023-07-20T02:52:12;23.86;66.63
77693;SHT31;66984;47.404;18.836;2023-07-20T02:53:15;23.87;66.62
77693;SHT31;66984;47.404;18.836;2023-07-20T02:54:18;23.88;66.60
77693;SHT31;66984;47.404;18.836;2023-07-20T02:55:21;23.84;66.72
77693;SHT31;66984;47.404;18.836;2023-07-20T02:56:30;23.87;66.68
77693;SHT31;66984;47.404;18.836;2023-07-20T02:57:33;23.84;66.74
77693;SHT31;66984;47.404;18.836;2023-07-20T02:58:41;23.84;66.71
77693;SHT31;66984;47.404;18.836;2023-07-20T02:59:46;23.83;66.79
77693;SHT31;66984;47.404;18.836;2023-07-20T03:00:49;23.84;66.74
77693;SHT31;66984;47.404;18.836;2023-07-20T03:01:58;23.81;66.81
77693;SHT31;66984;47.404;18.836;2023-07-20T03:03:01;23.79;66.80
77693;SHT31;66984;47.404;18.836;2023-07-20T03:04:05;23.76;66.83
77693;SHT31;66984;47.404;18.836;2023-07-20T03:05:08;23.74;66.99
77693;SHT31;66984;47.404;18.836;2023-07-20T03:06:29;23.74;67.04
77693;SHT31;66984;47.404;18.836;2023-07-20T03:07:33;23.76;66.99
77693;SHT31;66984;47.404;18.836;2023-07-20T03:08:36;23.74;66.94
77693;SHT31;66984;47.404;18.836;2023-07-20T03:09:39;23.77;66.99
77693;SHT31;66984;47.404;18.836;2023-07-20T03:10:43;23.73;67.21
77693;SHT31;66984;47.404;18.836;2023-07-20T03:11:57;23.74;67.26
77693;SHT31;66984;47.404;18.836;2023-07-20T03:13:02;23.73;67.24
77693;SHT31;66984;47.404;18.836;2023-07-20T03:14:05;23.76;67.13
77693;SHT31;66984;47.404;18.836;2023-07-20T03:15:08;23.71;66.90
77693;SHT31;66984;47.404;18.836;2023-07-20T03:16:19;23.69;66.75
77693;SHT31;66984;47.404;18.836;2023-07-20T03:17:29;23.65;66.74
77693;SHT31;66984;47.404;18.836;2023-07-20T03:18:46;23.58;66.77
77693;SHT31;66984;47.404;18.836;2023-07-20T03:19:49;23.59;66.67
77693;SHT31;66984;47.404;18.836;2023-07-20T03:20:52;23.55;66.66
77693;SHT31;66984;47.404;18.836;2023-07-20T03:22:02;23.56;66.63
77693;SHT31;66984;47.404;18.836;2023-07-20T03:23:05;23.56;66.66
77693;SHT31;66984;47.404;18.836;2023-07-20T03:24:08;23.53;66.33
77693;SHT31;66984;47.404;18.836;2023-07-20T03:25:13;23.52;66.05
77693;SHT31;66984;47.404;18.836;2023-07-20T04:43:15;23.45;66.45
77693;SHT31;66984;47.404;18.836;2023-07-20T04:44:31;23.46;66.44
77693;SHT31;66984;47.404;18.836;2023-07-20T04:45:33;23.45;66.26
77693;SHT31;66984;47.404;18.836;2023-07-20T04:46:43;23.45;66.18
77693;SHT31;66984;47.404;18.836;2023-07-20T04:47:48;23.46;66.13
77693;SHT31;66984;47.404;18.836;2023-07-20T04:48:52;23.49;66.32
77693;SHT31;66984;47.404;18.836;2023-07-20T04:49:57;23.50;66.32
77693;SHT31;66984;47.404;18.836;2023-07-20T04:51:07;23.48;65.79
77693;SHT31;66984;47.404;18.836;2023-07-20T04:52:10;23.55;65.84
77693;SHT31;66984;47.404;18.836;2023-07-20T04:53:14;23.55;65.94
77693;SHT31;66984;47.404;18.836;2023-07-20T04:54:17;23.58;65.89
77693;SHT31;66984;47.404;18.836;2023-07-20T04:55:21;23.62;65.98
77693;SHT31;66984;47.404;18.836;2023-07-20T04:56:30;23.59;65.77
77693;SHT31;66984;47.404;18.836;2023-07-20T04:57:33;23.60;65.70
77693;SHT31;66984;47.404;18.836;2023-07-20T04:58:36;23.59;65.65
77693;SHT31;66984;47.404;18.836;2023-07-20T04:59:39;23.62;65.45
77693;SHT31;66984;47.404;18.836;2023-07-20T05:00:42;23.66;65.49
77693;SHT31;66984;47.404;18.836;2023-07-20T05:01:51;23.70;65.45
77693;SHT31;66984;47.404;18.836;2023-07-20T05:02:54;23.70;65.39
77693;SHT31;66984;47.404;18.836;2023-07-20T05:03:58;23.74;65.34
77693;SHT31;66984;47.404;18.836;2023-07-20T05:05:01;23.76;65.07
77693;SHT31;66984;47.404;18.836;2023-07-20T05:06:04;23.80;65.13
77693;SHT31;66984;47.404;18.836;2023-07-20T05:07:14;23.80;64.82
77693;SHT31;66984;47.404;18.836;2023-07-20T05:08:17;23.81;64.52
77693;SHT31;66984;47.404;18.836;2023-07-20T05:09:54;23.80;64.32
77693;SHT31;66984;47.404;18.836;2023-07-20T05:16:57;23.87;64.16
77693;SHT31;66984;47.404;18.836;2023-07-20T05:18:32;23.87;63.68
77693;SHT31;66984;47.404;18.836;2023-07-20T05:20:10;23.90;63.53
77693;SHT31;66984;47.404;18.836;2023-07-20T05:21:27;23.93;63.40
77693;SHT31;66984;47.404;18.836;2023-07-20T05:22:30;23.93;62.86
77693;SHT31;66984;47.404;18.836;2023-07-20T05:25:42;23.96;62.50
77693;SHT31;66984;47.404;18.836;2023-07-20T05:55:11;24.56;57.65
77693;SHT31;66984;47.404;18.836;2023-07-20T05:56:28;24.61;57.39
77693;SHT31;66984;47.404;18.836;2023-07-20T05:57:31;24.64;57.04
77693;SHT31;66984;47.404;18.836;2023-07-20T05:58:33;24.65;57.73
77693;SHT31;66984;47.404;18.836;2023-07-20T05:59:36;24.69;57.52
77693;SHT31;66984;47.404;18.836;2023-07-20T06:00:40;24.73;57.58
77693;SHT31;66984;47.404;18.836;2023-07-20T06:01:44;24.73;57.73
77693;SHT31;66984;47.404;18.836;2023-07-20T06:02:47;24.77;57.66
77693;SHT31;66984;47.404;18.836;2023-07-20T06:03:50;24.80;57.38
77693;SHT31;66984;47.404;18.836;2023-07-20T06:04:53;24.86;57.84
77693;SHT31;66984;47.404;18.836;2023-07-20T06:06:01;24.89;57.60
77693;SHT31;66984;47.404;18.836;2023-07-20T06:07:04;24.89;57.61
77693;SHT31;66984;47.404;18.836;2023-07-20T06:08:07;24.96;56.58
77693;SHT31;66984;47.404;18.836;2023-07-20T06:09:10;24.92;56.25
77693;SHT31;66984;47.404;18.836;2023-07-20T06:10:14;24.97;56.09
77693;SHT31;66984;47.404;18.836;2023-07-20T06:11:18;25.02;56.23
77693;SHT31;66984;47.404;18.836;2023-07-20T06:12:21;25.03;56.40
77693;SHT31;66984;47.404;18.836;2023-07-20T06:13:23;25.10;56.54
77693;SHT31;66984;47.404;18.836;2023-07-20T06:14:27;25.14;56.47
77693;SHT31;66984;47.404;18.836;2023-07-20T06:15:34;25.16;56.44
77693;SHT31;66984;47.404;18.836;2023-07-20T06:16:41;25.22;56.31
77693;SHT31;66984;47.404;18.836;2023-07-20T06:17:44;25.24;56.46
77693;SHT31;66984;47.404;18.836;2023-07-20T06:18:47;25.28;56.49
77693;SHT31;66984;47.404;18.836;2023-07-20T06:19:50;25.31;56.72
77693;SHT31;66984;47.404;18.836;2023-07-20T06:20:53;25.30;56.65
77693;SHT31;66984;47.404;18.836;2023-07-20T06:21:56;25.34;56.55
77693;SHT31;66984;47.404;18.836;2023-07-20T06:22:59;25.35;56.41
77693;SHT31;66984;47.404;18.836;2023-07-20T06:24:02;25.35;56.44
77693;SHT31;66984;47.404;18.836;2023-07-20T06:25:05;25.37;56.39
77693;SHT31;66984;47.404;18.836;2023-07-20T06:26:08;25.35;57.44
77693;SHT31;66984;47.404;18.836;2023-07-20T06:27:11;25.38;56.44
77693;SHT31;66984;47.404;18.836;2023-07-20T06:28:14;25.37;56.07
77693;SHT31;66984;47.404;18.836;2023-07-20T06:29:18;25.40;56.23
77693;SHT31;66984;47.404;18.836;2023-07-20T06:30:21;25.40;55.67
77693;SHT31;66984;47.404;18.836;2023-07-20T06:31:24;25.34;55.17
77693;SHT31;66984;47.404;18.836;2023-07-20T06:32:27;25.38;55.32
77693;SHT31;66984;47.404;18.836;2023-07-20T06:33:30;25.41;55.41
77693;SHT31;66984;47.404;18.836;2023-07-20T06:34:33;25.37;54.52
77693;SHT31;66984;47.404;18.836;2023-07-20T06:35:41;25.35;53.50
77693;SHT31;66984;47.404;18.836;2023-07-20T06:36:45;25.37;53.77
77693;SHT31;66984;47.404;18.836;2023-07-20T06:37:48;25.38;53.50
77693;SHT31;66984;47.404;18.836;2023-07-20T06:38:51;25.38;53.93
77693;SHT31;66984;47.404;18.836;2023-07-20T06:39:57;25.35;53.58
77693;SHT31;66984;47.404;18.836;2023-07-20T06:41:03;25.38;53.72
77693;SHT31;66984;47.404;18.836;2023-07-20T06:42:09;25.40;53.51
77693;SHT31;66984;47.404;18.836;2023-07-20T06:43:12;25.43;53.54
77693;SHT31;66984;47.404;18.836;2023-07-20T06:44:18;25.47;53.52
77693;SHT31;66984;47.404;18.836;2023-07-20T06:45:21;25.48;52.85
77693;SHT31;66984;47.404;18.836;2023-07-20T06:46:27;25.47;52.35
77693;SHT31;66984;47.404;18.836;2023-07-20T06:47:30;25.51;52.53
77693;SHT31;66984;47.404;18.836;2023-07-20T06:48:33;25.51;51.86
77693;SHT31;66984;47.404;18.836;2023-07-20T06:49:56;25.60;51.81
77693;SHT31;66984;47.404;18.836;2023-07-20T06:50:59;25.60;52.01
77693;SHT31;66984;47.404;18.836;2023-07-20T06:52:02;25.64;52.32
77693;SHT31;66984;47.404;18.836;2023-07-20T06:53:05;25.68;53.56
77693;SHT31;66984;47.404;18.836;2023-07-20T06:54:08;25.74;51.61
77693;SHT31;66984;47.404;18.836;2023-07-20T06:55:11;25.75;52.85
77693;SHT31;66984;47.404;18.836;2023-07-20T06:56:13;25.80;52.06
77693;SHT31;66984;47.404;18.836;2023-07-20T06:57:16;25.91;52.76
77693;SHT31;66984;47.404;18.836;2023-07-20T06:58:20;25.91;52.15
77693;SHT31;66984;47.404;18.836;2023-07-20T06:59:24;25.91;51.20
77693;SHT31;66984;47.404;18.836;2023-07-20T07:00:27;25.98;51.72
77693;SHT31;66984;47.404;18.836;2023-07-20T07:01:30;25.99;52.16
77693;SHT31;66984;47.404;18.836;2023-07-20T07:02:32;26.06;53.25
77693;SHT31;66984;47.404;18.836;2023-07-20T07:03:37;26.12;52.15
77693;SHT31;66984;47.404;18.836;2023-07-20T07:04:40;26.16;51.30
77693;SHT31;66984;47.404;18.836;2023-07-20T07:05:43;26.16;50.25
77693;SHT31;66984;47.404;18.836;2023-07-20T07:06:51;26.22;50.66
77693;SHT31;66984;47.404;18.836;2023-07-20T07:07:57;26.25;49.27
77693;SHT31;66984;47.404;18.836;2023-07-20T07:09:00;26.29;49.04
77693;SHT31;66984;47.404;18.836;2023-07-20T07:10:03;26.28;49.44
77693;SHT31;66984;47.404;18.836;2023-07-20T07:11:07;26.33;49.44
77693;SHT31;66984;47.404;18.836;2023-07-20T07:12:12;26.35;49.22
77693;SHT31;66984;47.404;18.836;2023-07-20T07:13:15;26.35;50.75
77693;SHT31;66984;47.404;18.836;2023-07-20T07:14:20;26.39;50.43
77693;SHT31;66984;47.404;18.836;2023-07-20T07:15:25;26.44;50.58
77693;SHT31;66984;47.404;18.836;2023-07-20T07:16:28;26.47;51.31
77693;SHT31;66984;47.404;18.836;2023-07-20T07:17:32;26.50;50.53
77693;SHT31;66984;47.404;18.836;2023-07-20T07:18:36;26.54;51.64
77693;SHT31;66984;47.404;18.836;2023-07-20T07:19:39;26.56;50.18
77693;SHT31;66984;47.404;18.836;2023-07-20T07:20:50;26.60;49.84
77693;SHT31;66984;47.404;18.836;2023-07-20T07:21:53;26.63;50.08
77693;SHT31;66984;47.404;18.836;2023-07-20T07:23:01;26.67;50.03
77693;SHT31;66984;47.404;18.836;2023-07-20T07:24:04;26.73;50.53
77693;SHT31;66984;47.404;18.836;2023-07-20T07:25:09;26.76;49.18
77693;SHT31;66984;47.404;18.836;2023-07-20T07:26:12;26.77;48.05
77693;SHT31;66984;47.404;18.836;2023-07-20T07:27:15;26.83;48.56
77693;SHT31;66984;47.404;18.836;2023-07-20T07:28:21;26.84;49.62
77693;SHT31;66984;47.404;18.836;2023-07-20T07:29:25;26.88;49.18
77693;SHT31;66984;47.404;18.836;2023-07-20T07:30:29;26.91;47.55
77693;SHT31;66984;47.404;18.836;2023-07-20T07:31:35;26.91;47.40
77693;SHT31;66984;47.404;18.836;2023-07-20T07:32:38;26.91;47.65
77693;SHT31;66984;47.404;18.836;2023-07-20T07:33:41;26.95;48.17
77693;SHT31;66984;47.404;18.836;2023-07-20T07:34:44;26.97;47.72
77693;SHT31;66984;47.404;18.836;2023-07-20T07:35:50;26.97;47.05
77693;SHT31;66984;47.404;18.836;2023-07-20T07:36:54;26.95;47.09
77693;SHT31;66984;47.404;18.836;2023-07-20T07:37:57;26.97;47.75
77693;SHT31;66984;47.404;18.836;2023-07-20T07:39:20;26.97;47.58
77693;SHT31;66984;47.404;18.836;2023-07-20T07:40:25;26.98;47.71
77693;SHT31;66984;47.404;18.836;2023-07-20T07:41:28;27.02;48.08
77693;SHT31;66984;47.404;18.836;2023-07-20T07:42:31;27.07;48.02
77693;SHT31;66984;47.404;18.836;2023-07-20T07:43:34;27.09;47.04
77693;SHT31;66984;47.404;18.836;2023-07-20T07:44:37;27.15;48.00
77693;SHT31;66984;47.404;18.836;2023-07-20T07:45:40;27.18;46.72
77693;SHT31;66984;47.404;18.836;2023-07-20T07:46:43;27.21;47.05
77693;SHT31;66984;47.404;18.836;2023-07-20T07:47:46;27.24;47.02
77693;SHT31;66984;47.404;18.836;2023-07-20T07:48:49;27.25;46.68
77693;SHT31;66984;47.404;18.836;2023-07-20T07:49:52;27.31;48.23
77693;SHT31;66984;47.404;18.836;2023-07-20T07:50:55;27.36;49.34
77693;SHT31;66984;47.404;18.836;2023-07-20T07:51:58;27.45;46.83
77693;SHT31;66984;47.404;18.836;2023-07-20T07:53:01;27.49;46.03
77693;SHT31;66984;47.404;18.836;2023-07-20T07:54:04;27.49;45.80
77693;SHT31;66984;47.404;18.836;2023-07-20T07:55:07;27.50;45.96
77693;SHT31;66984;47.404;18.836;2023-07-20T07:56:10;27.55;45.86
77693;SHT31;66984;47.404;18.836;2023-07-20T07:57:13;27.59;45.71
77693;SHT31;66984;47.404;18.836;2023-07-20T07:58:16;27.67;45.95
77693;SHT31;66984;47.404;18.836;2023-07-20T07:59:19;27.67;45.10
77693;SHT31;66984;47.404;18.836;2023-07-20T08:00:22;27.67;45.89
77693;SHT31;66984;47.404;18.836;2023-07-20T08:01:25;27.73;45.17
77693;SHT31;66984;47.404;18.836;2023-07-20T08:02:29;27.70;45.13
77693;SHT31;66984;47.404;18.836;2023-07-20T08:03:34;27.70;44.55
77693;SHT31;66984;47.404;18.836;2023-07-20T08:04:39;27.76;43.95
77693;SHT31;66984;47.404;18.836;2023-07-20T08:05:42;27.76;43.43
77693;SHT31;66984;47.404;18.836;2023-07-20T08:06:45;27.74;44.92
77693;SHT31;66984;47.404;18.836;2023-07-20T08:07:48;27.79;44.25
77693;SHT31;66984;47.404;18.836;2023-07-20T08:08:51;27.87;45.66
77693;SHT31;66984;47.404;18.836;2023-07-20T08:09:54;27.90;44.98
77693;SHT31;66984;47.404;18.836;2023-07-20T08:10:58;27.96;45.59
77693;SHT31;66984;47.404;18.836;2023-07-20T08:12:07;28.03;46.94
77693;SHT31;66984;47.404;18.836;2023-07-20T08:13:10;28.08;46.26
77693;SHT31;66984;47.404;18.836;2023-07-20T08:14:13;28.13;44.83
77693;SHT31;66984;47.404;18.836;2023-07-20T08:15:16;28.18;44.41
77693;SHT31;66984;47.404;18.836;2023-07-20T08:16:19;28.17;44.61
77693;SHT31;66984;47.404;18.836;2023-07-20T08:17:22;28.22;44.35
77693;SHT31;66984;47.404;18.836;2023-07-20T08:18:25;28.29;45.36
77693;SHT31;66984;47.404;18.836;2023-07-20T08:19:28;28.34;45.14
77693;SHT31;66984;47.404;18.836;2023-07-20T08:20:31;28.37;43.59
77693;SHT31;66984;47.404;18.836;2023-07-20T08:21:34;28.38;44.67
77693;SHT31;66984;47.404;18.836;2023-07-20T08:22:38;28.45;44.91
77693;SHT31;66984;47.404;18.836;2023-07-20T08:23:42;28.54;44.62
77693;SHT31;66984;47.404;18.836;2023-07-20T08:24:45;28.54;42.50
77693;SHT31;66984;47.404;18.836;2023-07-20T08:25:48;28.55;42.01
77693;SHT31;66984;47.404;18.836;2023-07-20T08:26:51;28.58;43.41
77693;SHT31;66984;47.404;18.836;2023-07-20T08:27:53;28.62;43.89
77693;SHT31;66984;47.404;18.836;2023-07-20T08:28:56;28.68;43.31
77693;SHT31;66984;47.404;18.836;2023-07-20T08:29:59;28.71;43.73
77693;SHT31;66984;47.404;18.836;2023-07-20T08:31:02;28.78;44.13
77693;SHT31;66984;47.404;18.836;2023-07-20T08:32:08;28.83;42.28
77693;SHT31;66984;47.404;18.836;2023-07-20T08:33:13;28.84;42.87
77693;SHT31;66984;47.404;18.836;2023-07-20T08:34:17;28.86;42.63
77693;SHT31;66984;47.404;18.836;2023-07-20T08:35:32;28.92;41.40
77693;SHT31;66984;47.404;18.836;2023-07-20T08:36:35;28.88;42.93
77693;SHT31;66984;47.404;18.836;2023-07-20T08:37:39;28.88;41.31
77693;SHT31;66984;47.404;18.836;2023-07-20T08:38:42;28.89;41.52
77693;SHT31;66984;47.404;18.836;2023-07-20T08:39:45;28.93;41.53
77693;SHT31;66984;47.404;18.836;2023-07-20T08:40:48;28.98;43.73
77693;SHT31;66984;47.404;18.836;2023-07-20T08:41:51;29.00;42.94
77693;SHT31;66984;47.404;18.836;2023-07-20T08:42:58;29.02;41.45
77693;SHT31;66984;47.404;18.836;2023-07-20T08:44:03;29.00;39.95
77693;SHT31;66984;47.404;18.836;2023-07-20T08:45:06;29.00;39.93
77693;SHT31;66984;47.404;18.836;2023-07-20T08:46:11;28.98;40.89
77693;SHT31;66984;47.404;18.836;2023-07-20T08:47:16;29.00;40.90